Time;durP1;ratioP1;P1;durP2;ratioP2;P2;SDS_P1;SDS_P2;PMS_P1;PMS_P2;Temp;Humidity;BMP_temperature;BMP_pressure;BME280_temperature;BME280_humidity;BME280_pressure;Samples;Min_cycle;Max_cycle;Signal;HPM_P1;HPM_P2
2023/09/04 00:01:02;;;;;;;5.57;2.10;;;24.10;99.90;;;;;;4990361;28;20022;-84
2023/09/04 00:03:28;;;;;;;3.15;2.00;;;24.20;99.90;;;;;;4990314;28;20084;-84
2023/09/04 00:05:54;;;;;;;5.25;2.22;;;24.20;99.90;;;;;;4981043;28;20023;-84
2023/09/04 00:08:19;;;;;;;2.50;2.05;;;24.20;99.90;;;;;;4970528;28;20059;-84
2023/09/04 00:10:45;;;;;;;4.53;2.00;;;24.20;99.90;;;;;;4970609;28;20077;-84
2023/09/04 00:13:12;;;;;;;2.92;1.92;;;24.20;99.90;;;;;;4970788;28;20042;-84
2023/09/04 00:15:38;;;;;;;2.17;1.92;;;24.20;99.90;;;;;;5003114;28;20030;-84
2023/09/04 00:18:04;;;;;;;2.80;2.10;;;24.10;99.90;;;;;;4990270;28;20506;-84
2023/09/04 00:20:30;;;;;;;2.72;2.22;;;24.20;99.90;;;;;;4990160;28;20030;-84
2023/09/04 00:22:55;;;;;;;4.65;2.05;;;24.10;99.90;;;;;;4988346;28;20049;-84
2023/09/04 00:25:21;;;;;;;2.58;2.13;;;24.10;99.90;;;;;;4989441;28;20554;-84
2023/09/04 00:27:49;;;;;;;4.18;2.20;;;24.00;99.90;;;;;;4990305;28;20042;-83
2023/09/04 00:30:15;;;;;;;3.47;2.13;;;24.10;99.90;;;;;;4989900;28;20034;-84
2023/09/04 00:32:40;;;;;;;2.28;2.08;;;24.10;99.90;;;;;;4988015;28;20394;-84
2023/09/04 00:35:07;;;;;;;4.00;2.20;;;24.10;99.90;;;;;;4989894;28;20030;-83
2023/09/04 00:37:33;;;;;;;4.72;2.20;;;23.90;99.90;;;;;;4989800;28;20022;-83
2023/09/04 00:39:59;;;;;;;3.13;2.00;;;23.80;99.90;;;;;;4980004;28;20081;-84
2023/09/04 00:42:28;;;;;;;3.08;2.00;;;23.80;99.90;;;;;;4970272;28;20034;-83
2023/09/04 00:44:54;;;;;;;3.25;2.08;;;23.80;99.90;;;;;;4970397;28;20023;-83
2023/09/04 00:47:22;;;;;;;4.38;3.17;;;23.80;99.90;;;;;;4969789;28;20058;-83
2023/09/04 00:49:50;;;;;;;2.50;1.92;;;23.90;99.90;;;;;;4969223;28;20449;-84
2023/09/04 00:52:16;;;;;;;2.00;1.80;;;23.90;99.90;;;;;;4970322;28;20022;-84
2023/09/04 00:54:42;;;;;;;3.55;1.90;;;23.80;99.90;;;;;;4973189;28;20114;-84
2023/09/04 00:57:09;;;;;;;3.05;1.92;;;23.80;99.90;;;;;;4991959;28;20026;-84
2023/09/04 00:59:35;;;;;;;4.07;2.20;;;23.80;99.90;;;;;;5013349;28;20025;-84
2023/09/04 01:02:01;;;;;;;4.32;1.88;;;23.70;99.90;;;;;;5013274;28;20033;-84
2023/09/04 01:04:27;;;;;;;5.93;2.40;;;23.80;99.90;;;;;;5013380;28;20022;-84
2023/09/04 01:06:53;;;;;;;3.83;2.05;;;23.80;99.90;;;;;;5014012;28;20037;-85
2023/09/04 01:09:20;;;;;;;3.80;2.30;;;23.70;99.90;;;;;;5013148;28;20034;-85
2023/09/04 01:12:04;;;;;;;3.10;2.08;;;23.70;99.90;;;;;;4992395;28;20034;-84
2023/09/04 01:14:30;;;;;;;3.75;2.00;;;23.70;99.90;;;;;;4978424;28;20105;-83
2023/09/04 01:16:58;;;;;;;3.60;2.20;;;23.70;99.90;;;;;;4976326;28;20046;-83
2023/09/04 01:19:23;;;;;;;7.97;2.10;;;23.60;99.90;;;;;;4988110;28;20028;-83
2023/09/04 01:21:49;;;;;;;6.28;2.10;;;23.60;99.90;;;;;;4993166;28;20058;-83
2023/09/04 01:24:15;;;;;;;4.65;2.10;;;23.60;99.90;;;;;;4993137;28;20757;-84
2023/09/04 01:26:51;;;;;;;2.55;1.98;;;23.50;99.90;;;;;;4993352;28;20030;-83
2023/09/04 01:29:37;;;;;;;2.47;1.90;;;23.50;99.90;;;;;;4991662;28;20045;-83
2023/09/04 01:32:36;;;;;;;2.17;1.98;;;23.50;99.90;;;;;;4991139;28;20133;-83
2023/09/04 01:35:05;;;;;;;2.95;2.30;;;23.40;99.90;;;;;;4977102;28;20486;-84
2023/09/04 01:37:31;;;;;;;3.05;2.00;;;23.40;99.90;;;;;;4992856;28;20069;-82
2023/09/04 01:39:57;;;;;;;3.25;1.95;;;23.40;99.90;;;;;;4993164;28;20022;-83
2023/09/04 01:42:22;;;;;;;2.55;2.10;;;23.40;99.90;;;;;;4993726;28;20030;-84
2023/09/04 01:44:48;;;;;;;5.68;2.17;;;23.40;99.90;;;;;;4992949;28;20386;-83
2023/09/04 01:47:14;;;;;;;3.17;2.15;;;23.40;99.90;;;;;;4992559;28;20030;-83
2023/09/04 01:49:39;;;;;;;2.80;2.22;;;23.40;99.90;;;;;;4992389;28;20026;-84
2023/09/04 01:52:05;;;;;;;3.83;2.15;;;23.40;99.90;;;;;;4991256;28;20455;-84
2023/09/04 01:54:31;;;;;;;2.40;1.90;;;23.40;99.90;;;;;;4992844;28;20022;-84
2023/09/04 01:56:57;;;;;;;4.18;1.95;;;23.30;99.90;;;;;;4992405;28;20030;-83
2023/09/04 01:59:22;;;;;;;5.30;2.20;;;23.30;99.90;;;;;;4993365;28;20102;-83
2023/09/04 02:01:48;;;;;;;2.67;1.95;;;23.30;99.90;;;;;;4992436;28;20105;-83
2023/09/04 02:04:13;;;;;;;4.68;2.05;;;23.30;99.90;;;;;;4992507;28;20029;-83
2023/09/04 02:06:39;;;;;;;2.58;2.00;;;23.30;99.90;;;;;;4991684;28;20018;-84
2023/09/04 02:09:05;;;;;;;2.58;2.05;;;23.20;99.90;;;;;;4992203;28;20109;-83
2023/09/04 02:11:30;;;;;;;2.65;2.15;;;23.20;99.90;;;;;;4992104;28;20027;-83
2023/09/04 02:13:56;;;;;;;2.50;2.00;;;23.20;99.90;;;;;;4993451;28;20650;-86
2023/09/04 02:16:25;;;;;;;2.72;1.85;;;23.20;99.90;;;;;;4987715;28;20410;-82
2023/09/04 02:18:51;;;;;;;2.53;2.10;;;23.10;99.90;;;;;;4973751;28;20030;-82
2023/09/04 02:21:16;;;;;;;2.40;1.90;;;23.10;99.90;;;;;;4972627;28;20045;-82
2023/09/04 02:23:42;;;;;;;4.45;2.30;;;23.10;99.90;;;;;;4972949;28;20102;-82
2023/09/04 02:26:08;;;;;;;8.13;2.33;;;23.10;99.90;;;;;;4972469;28;20041;-82
2023/09/04 02:28:34;;;;;;;2.03;1.83;;;23.10;99.90;;;;;;4972855;28;20395;-82
2023/09/04 02:31:06;;;;;;;4.57;1.90;;;23.10;99.90;;;;;;4985741;28;20035;-82
2023/09/04 02:33:31;;;;;;;2.10;1.90;;;23.10;99.90;;;;;;4991960;28;20124;-82
2023/09/04 02:35:57;;;;;;;3.67;2.10;;;23.00;99.90;;;;;;4992342;28;20050;-82
2023/09/04 02:38:23;;;;;;;2.60;1.98;;;23.10;99.90;;;;;;4992376;28;20037;-82
2023/09/04 02:40:48;;;;;;;2.47;2.00;;;22.90;99.90;;;;;;4992189;28;20034;-82
2023/09/04 02:43:14;;;;;;;2.70;1.83;;;23.00;99.90;;;;;;4991602;28;20030;-82
2023/09/04 02:45:40;;;;;;;2.10;1.90;;;22.90;99.90;;;;;;4991903;28;20022;-82
2023/09/04 02:48:06;;;;;;;2.55;1.90;;;23.00;99.90;;;;;;4975109;28;20454;-82
2023/09/04 02:50:31;;;;;;;2.03;1.80;;;23.00;99.90;;;;;;4970769;28;20035;-83
2023/09/04 02:52:57;;;;;;;3.58;2.00;;;22.90;99.90;;;;;;4974055;28;20038;-83
2023/09/04 02:55:22;;;;;;;3.63;1.77;;;22.90;99.90;;;;;;4978309;28;20034;-82
2023/09/04 02:57:48;;;;;;;2.38;1.90;;;22.90;99.90;;;;;;4990576;28;20640;-82
2023/09/04 03:00:14;;;;;;;4.07;2.05;;;22.80;99.90;;;;;;4991785;28;20030;-82
2023/09/04 03:02:39;;;;;;;4.18;1.70;;;22.80;99.90;;;;;;4991566;28;20030;-83
2023/09/04 03:05:05;;;;;;;2.20;2.00;;;22.80;99.90;;;;;;4974331;28;20505;-83
2023/09/04 03:07:31;;;;;;;2.72;1.85;;;22.70;99.90;;;;;;4972061;28;20027;-83
2023/09/04 03:09:58;;;;;;;3.00;2.08;;;22.80;99.90;;;;;;4978561;28;20057;-82
2023/09/04 03:12:29;;;;;;;2.30;1.90;;;22.80;99.90;;;;;;4991559;28;20471;-82
2023/09/04 03:15:00;;;;;;;3.85;1.98;;;22.80;99.90;;;;;;4973155;28;20494;-82
2023/09/04 03:17:27;;;;;;;2.22;2.00;;;22.80;99.90;;;;;;4972838;28;20034;-83
2023/09/04 03:19:54;;;;;;;2.78;2.00;;;22.80;99.90;;;;;;4971910;28;20105;-82
2023/09/04 03:22:21;;;;;;;4.15;2.10;;;22.80;99.90;;;;;;4971566;28;20424;-83
2023/09/04 03:24:46;;;;;;;2.20;2.00;;;22.80;99.90;;;;;;4971633;28;20045;-82
2023/09/04 03:27:12;;;;;;;5.00;1.90;;;22.70;99.90;;;;;;4980273;28;20034;-83
2023/09/04 03:29:38;;;;;;;1.92;1.77;;;22.80;99.90;;;;;;4987042;28;20407;-83
2023/09/04 03:32:04;;;;;;;2.83;2.00;;;22.70;99.90;;;;;;4971654;28;20102;-83
2023/09/04 03:34:29;;;;;;;2.72;2.10;;;22.70;99.90;;;;;;4972305;28;20046;-83
2023/09/04 03:36:55;;;;;;;2.30;1.90;;;22.80;99.90;;;;;;4969813;28;20070;-83
2023/09/04 03:39:21;;;;;;;3.28;2.10;;;22.70;99.90;;;;;;4984559;28;20246;-83
2023/09/04 03:41:47;;;;;;;2.63;2.00;;;22.70;99.90;;;;;;4990850;28;20085;-83
2023/09/04 03:44:14;;;;;;;2.95;2.13;;;22.70;99.90;;;;;;4975059;28;20568;-81
2023/09/04 03:46:40;;;;;;;2.58;2.00;;;22.70;99.90;;;;;;4981708;28;20018;-83
2023/09/04 03:49:05;;;;;;;4.03;2.10;;;22.70;99.90;;;;;;4990033;28;20056;-84
2023/09/04 03:51:31;;;;;;;3.67;2.20;;;22.70;99.90;;;;;;4987817;28;20416;-84
2023/09/04 03:54:01;;;;;;;2.55;1.90;;;22.60;99.90;;;;;;4980314;28;20516;-83
2023/09/04 03:56:28;;;;;;;3.63;1.90;;;22.60;99.90;;;;;;4969911;28;20113;-83
2023/09/04 03:58:55;;;;;;;4.27;1.90;;;22.60;99.90;;;;;;4965085;28;20406;-89
2023/09/04 04:01:24;;;;;;;2.65;2.00;;;22.60;99.90;;;;;;4969047;28;20255;-89
2023/09/04 04:03:51;;;;;;;2.78;2.05;;;22.50;99.90;;;;;;4984497;28;20154;-90
2023/09/04 04:06:17;;;;;;;2.42;2.00;;;22.60;99.90;;;;;;4972544;28;20035;-90
2023/09/04 04:08:45;;;;;;;2.45;1.85;;;22.60;99.90;;;;;;4974469;28;20525;-89
2023/09/04 04:11:10;;;;;;;2.08;1.90;;;22.60;99.90;;;;;;4966899;28;20130;-89
2023/09/04 04:13:36;;;;;;;3.25;1.90;;;22.60;99.90;;;;;;4972397;28;20038;-90
2023/09/04 04:16:02;;;;;;;4.95;1.90;;;22.60;99.90;;;;;;4973611;28;20410;-89
2023/09/04 04:18:29;;;;;;;2.05;1.85;;;22.60;99.90;;;;;;4974171;28;20022;-88
2023/09/04 04:20:55;;;;;;;3.08;1.75;;;22.60;99.90;;;;;;4973160;28;20033;-89
2023/09/04 04:23:21;;;;;;;2.20;2.00;;;22.60;99.90;;;;;;4972354;28;20503;-88
2023/09/04 04:25:50;;;;;;;2.85;1.80;;;22.60;99.90;;;;;;4989482;28;20102;-90
2023/09/04 04:28:18;;;;;;;3.65;2.00;;;22.60;99.90;;;;;;4990241;28;20022;-89
2023/09/04 04:30:44;;;;;;;;;;;22.60;99.90;;;;;;4982400;28;20057;-89
2023/09/04 04:33:09;;;;;;;2.17;1.95;;;22.50;99.90;;;;;;4974711;28;20297;-89
2023/09/04 04:35:35;;;;;;;2.38;1.85;;;22.40;99.90;;;;;;4968393;28;20031;-89
2023/09/04 04:38:01;;;;;;;2.20;1.90;;;22.40;99.90;;;;;;4980170;28;20030;-89
2023/09/04 04:40:26;;;;;;;3.20;1.83;;;22.50;99.90;;;;;;4984806;28;20034;-90
2023/09/04 04:42:52;;;;;;;3.42;2.00;;;22.50;99.90;;;;;;4987529;28;20085;-90
2023/09/04 04:45:22;;;;;;;2.05;1.90;;;22.50;99.90;;;;;;4993334;28;20040;-90
2023/09/04 04:47:47;;;;;;;3.92;1.88;;;22.50;99.90;;;;;;4994729;28;20076;-89
2023/09/04 04:50:13;;;;;;;2.10;1.90;;;22.50;99.90;;;;;;4986406;28;20050;-91
2023/09/04 04:52:38;;;;;;;3.17;1.92;;;22.50;99.90;;;;;;4991499;28;20538;-90
2023/09/04 04:55:05;;;;;;;2.00;1.80;;;22.50;99.90;;;;;;4986031;28;20474;-91
2023/09/04 04:57:33;;;;;;;1.90;1.80;;;22.60;99.90;;;;;;4977204;28;20510;-89
2023/09/04 04:59:59;;;;;;;4.28;2.13;;;22.60;99.90;;;;;;4979118;28;20031;-90
2023/09/04 05:02:25;;;;;;;9.02;1.90;;;22.60;99.90;;;;;;4977404;28;20036;-89
2023/09/04 05:04:50;;;;;;;2.38;2.10;;;22.50;99.90;;;;;;4989788;28;20033;-89
2023/09/04 05:07:16;;;;;;;2.40;2.03;;;22.60;99.90;;;;;;4980307;28;20451;-88
2023/09/04 05:09:42;;;;;;;3.40;2.00;;;22.50;99.90;;;;;;4981897;28;20049;-87
2023/09/04 05:12:07;;;;;;;5.75;2.10;;;22.50;99.90;;;;;;4993618;28;20414;-89
2023/09/04 05:14:33;;;;;;;4.32;1.70;;;22.50;99.90;;;;;;4990493;28;20402;-90
2023/09/04 05:16:59;;;;;;;2.67;2.03;;;22.50;99.90;;;;;;4979500;28;20085;-90
2023/09/04 05:19:25;;;;;;;2.15;1.80;;;22.50;99.90;;;;;;4990330;28;20121;-83
2023/09/04 05:21:51;;;;;;;2.28;2.08;;;22.40;99.90;;;;;;4972165;28;20075;-83
2023/09/04 05:24:16;;;;;;;3.70;1.98;;;22.40;99.90;;;;;;4969906;28;20034;-83
2023/09/04 05:26:42;;;;;;;3.58;2.03;;;22.40;99.90;;;;;;4969838;28;20372;-83
2023/09/04 05:29:08;;;;;;;2.92;1.80;;;22.30;99.90;;;;;;4972100;28;20032;-83
2023/09/04 05:31:33;;;;;;;4.90;2.00;;;22.40;99.90;;;;;;4979748;28;20041;-83
2023/09/04 05:33:59;;;;;;;2.65;2.00;;;22.40;99.90;;;;;;4983009;28;20158;-83
2023/09/04 05:36:24;;;;;;;3.50;2.00;;;22.40;99.90;;;;;;4973087;28;20031;-84
2023/09/04 05:38:50;;;;;;;4.15;2.05;;;22.40;99.90;;;;;;4979591;28;20413;-84
2023/09/04 05:41:16;;;;;;;1.88;1.77;;;22.40;99.90;;;;;;4972774;28;20038;-82
2023/09/04 05:43:41;;;;;;;3.00;2.00;;;22.40;99.90;;;;;;4985737;28;20561;-83
2023/09/04 05:46:07;;;;;;;3.03;1.85;;;22.40;99.90;;;;;;4990054;28;20088;-83
2023/09/04 05:48:36;;;;;;;5.30;2.00;;;22.40;99.90;;;;;;4980082;28;20034;-83
2023/09/04 05:51:02;;;;;;;2.17;1.95;;;22.40;99.90;;;;;;4980790;28;20490;-83
2023/09/04 05:53:29;;;;;;;3.78;1.90;;;22.40;99.90;;;;;;4986265;28;20446;-83
2023/09/04 05:56:10;;;;;;;1.83;1.73;;;22.40;99.90;;;;;;4974998;28;20039;-83
2023/09/04 05:58:50;;;;;;;4.07;1.90;;;22.50;99.90;;;;;;4978212;28;20019;-83
2023/09/04 06:01:17;;;;;;;2.97;2.00;;;22.40;99.90;;;;;;4988038;28;20022;-83
2023/09/04 06:03:44;;;;;;;1.93;1.83;;;22.50;99.90;;;;;;4976010;28;20418;-83
2023/09/04 06:06:10;;;;;;;2.78;1.85;;;22.50;99.90;;;;;;4982986;28;20056;-83
2023/09/04 06:08:36;;;;;;;4.22;2.00;;;22.50;99.90;;;;;;4991744;28;20085;-83
2023/09/04 06:11:03;;;;;;;2.88;2.13;;;22.50;99.90;;;;;;4990434;28;20435;-82
2023/09/04 06:13:32;;;;;;;1.95;1.75;;;22.60;99.90;;;;;;4991549;28;20066;-82
2023/09/04 06:15:59;;;;;;;4.32;1.90;;;22.50;99.90;;;;;;4984593;28;20654;-83
2023/09/04 06:18:28;;;;;;;2.05;1.80;;;22.60;99.90;;;;;;4972420;28;20471;-83
2023/09/04 06:20:53;;;;;;;3.55;2.00;;;22.60;99.90;;;;;;4980868;28;20433;-82
2023/09/04 06:23:19;;;;;;;2.38;2.00;;;22.60;99.90;;;;;;4985819;28;20023;-82
2023/09/04 06:25:46;;;;;;;2.28;1.83;;;22.60;99.90;;;;;;4982571;28;20030;-83
2023/09/04 06:28:12;;;;;;;4.55;1.90;;;22.60;99.90;;;;;;4990310;28;20046;-82
2023/09/04 06:30:39;;;;;;;2.20;1.92;;;22.60;99.90;;;;;;5007213;28;20070;-82
2023/09/04 06:33:04;;;;;;;2.70;2.15;;;22.60;99.90;;;;;;5010309;28;20045;-82
2023/09/04 06:35:30;;;;;;;2.65;1.85;;;22.70;99.90;;;;;;4991455;28;20030;-82
2023/09/04 06:37:57;;;;;;;3.78;2.03;;;22.70;99.90;;;;;;4992002;28;20019;-83
2023/09/04 06:40:23;;;;;;;2.53;1.80;;;22.70;99.90;;;;;;4991797;28;20030;-83
2023/09/04 06:42:49;;;;;;;3.35;2.00;;;22.70;99.90;;;;;;4990591;28;20026;-82
2023/09/04 06:45:14;;;;;;;2.33;1.90;;;22.70;99.90;;;;;;4993299;28;20025;-83
2023/09/04 06:47:41;;;;;;;4.07;1.95;;;22.80;99.90;;;;;;5011217;28;20053;-82
2023/09/04 06:50:08;;;;;;;2.22;2.03;;;22.80;99.90;;;;;;5010684;28;20402;-82
2023/09/04 06:52:34;;;;;;;2.92;1.90;;;22.90;99.90;;;;;;4970344;28;20489;-83
2023/09/04 06:54:59;;;;;;;2.00;1.80;;;22.90;99.90;;;;;;4972399;28;20403;-83
2023/09/04 06:57:26;;;;;;;2.78;1.92;;;22.90;99.90;;;;;;4972043;28;20426;-83
2023/09/04 06:59:52;;;;;;;2.22;1.90;;;23.00;99.90;;;;;;4982438;28;20490;-83
2023/09/04 07:02:19;;;;;;;4.03;2.08;;;23.00;99.90;;;;;;4971568;28;20027;-82
2023/09/04 07:04:45;;;;;;;3.22;2.08;;;23.10;99.90;;;;;;4985393;28;20085;-82
2023/09/04 07:07:10;;;;;;;3.30;2.10;;;23.10;99.90;;;;;;4973963;28;20475;-83
2023/09/04 07:09:36;;;;;;;2.38;2.00;;;23.10;99.90;;;;;;4990237;28;20022;-83
2023/09/04 07:12:03;;;;;;;3.45;1.80;;;23.10;99.90;;;;;;4989548;28;20068;-82
2023/09/04 07:14:28;;;;;;;3.03;2.10;;;23.20;99.90;;;;;;4983859;28;20038;-83
2023/09/04 07:16:54;;;;;;;3.10;1.80;;;23.20;99.90;;;;;;4989588;28;20032;-83
2023/09/04 07:19:20;;;;;;;4.85;1.80;;;23.30;99.90;;;;;;4990307;28;20050;-83
2023/09/04 07:21:45;;;;;;;3.67;2.03;;;23.30;99.90;;;;;;4987269;28;20069;-82
2023/09/04 07:24:12;;;;;;;2.42;2.08;;;23.40;99.90;;;;;;4977656;28;20485;-83
2023/09/04 07:26:37;;;;;;;3.55;1.88;;;23.40;99.90;;;;;;4984211;28;20027;-83
2023/09/04 07:29:03;;;;;;;4.78;1.98;;;23.50;99.90;;;;;;4979929;28;20080;-82
2023/09/04 07:31:29;;;;;;;3.83;1.80;;;23.50;99.90;;;;;;4987317;28;20034;-82
2023/09/04 07:33:55;;;;;;;2.90;1.80;;;23.70;99.90;;;;;;4996962;28;20030;-83
2023/09/04 07:36:20;;;;;;;2.17;1.80;;;23.70;99.90;;;;;;5010525;28;20014;-82
2023/09/04 07:38:46;;;;;;;3.00;1.75;;;23.80;99.90;;;;;;4997180;28;20038;-83
2023/09/04 07:41:12;;;;;;;2.05;1.70;;;23.90;99.90;;;;;;4990089;28;20112;-83
2023/09/04 07:43:38;;;;;;;3.85;1.90;;;23.90;99.90;;;;;;4991524;28;20497;-83
2023/09/04 07:46:04;;;;;;;2.72;1.95;;;24.00;99.90;;;;;;4984547;28;20026;-83
2023/09/04 07:48:30;;;;;;;3.42;2.00;;;24.10;99.90;;;;;;4981396;28;20093;-83
2023/09/04 07:50:59;;;;;;;2.92;1.77;;;24.10;99.90;;;;;;4986457;28;20518;-82
2023/09/04 07:53:25;;;;;;;5.20;2.10;;;24.10;99.90;;;;;;4970801;28;20031;-83
2023/09/04 07:55:51;;;;;;;2.20;1.77;;;24.30;99.90;;;;;;4970701;28;20038;-82
2023/09/04 07:58:17;;;;;;;4.10;1.95;;;24.40;99.90;;;;;;4971157;28;20097;-83
2023/09/04 08:00:47;;;;;;;2.50;1.88;;;24.50;99.90;;;;;;4971116;28;20034;-83
2023/09/04 08:03:13;;;;;;;2.55;2.00;;;24.60;99.90;;;;;;4985525;28;20029;-83
2023/09/04 08:05:39;;;;;;;2.22;2.00;;;24.60;99.90;;;;;;4971541;28;20105;-84
2023/09/04 08:08:09;;;;;;;3.95;2.10;;;24.60;99.90;;;;;;4971773;28;20113;-83
2023/09/04 08:10:43;;;;;;;2.13;1.92;;;24.70;99.90;;;;;;4972022;28;20089;-83
2023/09/04 08:13:14;;;;;;;2.53;1.80;;;24.80;99.90;;;;;;4987765;28;20458;-83
2023/09/04 08:15:40;;;;;;;3.55;1.98;;;24.90;99.90;;;;;;4990151;28;20030;-83
2023/09/04 08:18:07;;;;;;;1.95;1.75;;;24.90;99.90;;;;;;4983468;28;20027;-83
2023/09/04 08:20:33;;;;;;;3.40;1.90;;;25.00;99.90;;;;;;4978593;28;20077;-83
2023/09/04 08:22:59;;;;;;;3.50;1.92;;;25.10;99.90;;;;;;4977509;28;20405;-83
2023/09/04 08:25:24;;;;;;;2.35;1.83;;;25.20;99.90;;;;;;4985587;28;20581;-83
2023/09/04 08:27:50;;;;;;;2.35;1.90;;;25.20;99.90;;;;;;4989987;28;20113;-83
2023/09/04 08:30:16;;;;;;;3.60;1.95;;;25.30;99.90;;;;;;4985042;28;20045;-83
2023/09/04 08:32:41;;;;;;;3.00;1.92;;;25.40;99.90;;;;;;4985803;28;20494;-83
2023/09/04 08:35:07;;;;;;;4.30;2.00;;;25.50;99.90;;;;;;4989190;28;20037;-83
2023/09/04 08:37:33;;;;;;;2.53;1.90;;;25.60;99.90;;;;;;4988043;28;20038;-83
2023/09/04 08:39:58;;;;;;;3.83;1.90;;;25.60;99.90;;;;;;4989010;28;20033;-83
2023/09/04 08:42:25;;;;;;;1.98;1.70;;;25.70;99.90;;;;;;4987276;28;20558;-83
2023/09/04 08:44:51;;;;;;;2.70;1.70;;;25.70;99.90;;;;;;4985079;28;20375;-83
2023/09/04 08:47:19;;;;;;;2.08;1.80;;;25.70;99.90;;;;;;4989687;28;20509;-83
2023/09/04 08:49:45;;;;;;;2.15;1.83;;;25.80;99.90;;;;;;4988605;28;20410;-83
2023/09/04 08:52:12;;;;;;;2.67;1.95;;;25.80;99.90;;;;;;4989267;28;20042;-83
2023/09/04 08:54:40;;;;;;;5.97;2.00;;;26.00;99.90;;;;;;4989035;28;20037;-83
2023/09/04 08:57:06;;;;;;;2.30;2.10;;;26.00;99.90;;;;;;4988966;28;20346;-83
2023/09/04 08:59:32;;;;;;;1.85;1.75;;;26.00;99.90;;;;;;4978750;28;20056;-83
2023/09/04 09:02:02;;;;;;;2.05;1.88;;;26.10;99.90;;;;;;4989587;28;20546;-83
2023/09/04 09:04:28;;;;;;;2.67;1.98;;;26.20;99.90;;;;;;4988966;28;20088;-83
2023/09/04 09:06:54;;;;;;;2.08;1.90;;;26.20;99.90;;;;;;4988824;28;20482;-83
2023/09/04 09:09:22;;;;;;;4.60;1.83;;;26.30;99.90;;;;;;4985343;28;20022;-83
2023/09/04 09:11:54;;;;;;;4.97;1.90;;;26.40;99.90;;;;;;4974719;28;20042;-83
2023/09/04 09:14:26;;;;;;;5.95;2.00;;;26.50;99.90;;;;;;4976522;28;20406;-83
2023/09/04 09:17:05;;;;;;;3.33;2.35;;;26.50;99.90;;;;;;4988028;28;20026;-83
2023/09/04 09:19:35;;;;;;;3.13;1.92;;;26.60;99.90;;;;;;4991782;28;20027;-83
2023/09/04 09:22:11;;;;;;;2.65;1.90;;;26.60;99.90;;;;;;4992544;28;20026;-83
2023/09/04 09:24:54;;;;;;;3.45;1.92;;;26.70;99.90;;;;;;4981070;28;20629;-83
2023/09/04 09:27:21;;;;;;;5.03;2.08;;;26.70;99.90;;;;;;4987363;28;20034;-83
2023/09/04 09:29:48;;;;;;;2.25;1.80;;;26.80;99.90;;;;;;4978874;28;20101;-83
2023/09/04 09:32:16;;;;;;;1.92;1.73;;;26.90;99.90;;;;;;4999364;28;20025;-83
2023/09/04 09:34:47;;;;;;;5.40;2.30;;;27.00;99.90;;;;;;5012586;28;20053;-83
2023/09/04 09:37:12;;;;;;;5.90;2.30;;;27.00;99.90;;;;;;4973807;28;20037;-83
2023/09/04 09:39:38;;;;;;;3.05;2.20;;;27.10;99.90;;;;;;4973548;28;20105;-83
2023/09/04 09:42:04;;;;;;;3.65;1.90;;;27.10;99.90;;;;;;4989219;28;20031;-83
2023/09/04 09:44:31;;;;;;;5.20;2.00;;;27.20;99.90;;;;;;4992947;28;20027;-83
2023/09/04 09:46:57;;;;;;;3.83;1.88;;;27.30;99.90;;;;;;4981286;28;20103;-83
2023/09/04 09:49:23;;;;;;;5.18;2.05;;;27.40;99.90;;;;;;4989038;28;20030;-83
2023/09/04 09:51:55;;;;;;;2.70;2.05;;;27.40;99.90;;;;;;4992249;28;20398;-83
2023/09/04 09:54:41;;;;;;;4.70;2.10;;;27.50;99.90;;;;;;4975520;28;20015;-83
2023/09/04 09:57:13;;;;;;;6.07;2.08;;;27.70;99.90;;;;;;4990831;28;20038;-83
2023/09/04 09:59:42;;;;;;;2.38;2.00;;;27.70;99.90;;;;;;4989778;28;20035;-83
2023/09/04 10:02:08;;;;;;;2.67;2.00;;;27.80;99.90;;;;;;4992357;28;20505;-83
2023/09/04 10:04:35;;;;;;;2.20;1.90;;;27.90;99.90;;;;;;4991661;28;20026;-83
2023/09/04 10:07:03;;;;;;;5.95;2.10;;;27.90;99.90;;;;;;4987752;28;20054;-83
2023/09/04 10:09:34;;;;;;;8.43;2.10;;;28.10;99.90;;;;;;4990717;28;20127;-83
2023/09/04 10:12:19;;;;;;;2.13;1.92;;;28.20;99.90;;;;;;4975781;28;20490;-83
2023/09/04 10:14:46;;;;;;;2.85;1.88;;;28.30;99.90;;;;;;4984918;28;20463;-83
2023/09/04 10:17:17;;;;;;;5.38;2.28;;;28.30;99.90;;;;;;4981091;28;20065;-82
2023/09/04 10:19:46;;;;;;;6.97;2.08;;;28.20;99.90;;;;;;4991508;28;20026;-83
2023/09/04 10:22:29;;;;;;;5.70;2.08;;;28.20;99.90;;;;;;4974253;28;20023;-83
2023/09/04 10:25:13;;;;;;;2.67;1.88;;;28.30;99.90;;;;;;4991579;28;20045;-83
2023/09/04 10:27:48;;;;;;;3.88;2.20;;;28.30;99.90;;;;;;4979268;28;20039;-83
2023/09/04 10:30:18;;;;;;;6.10;2.15;;;28.30;99.90;;;;;;4978797;28;20026;-83
2023/09/04 10:32:44;;;;;;;7.10;2.20;;;28.30;99.90;;;;;;4980520;28;20061;-83
2023/09/04 10:35:10;;;;;;;2.85;2.00;;;28.30;99.90;;;;;;4982406;28;20494;-83
2023/09/04 10:37:37;;;;;;;3.97;1.90;;;28.30;99.90;;;;;;4972500;28;20019;-84
2023/09/04 10:40:06;;;;;;;4.50;2.00;;;28.30;99.90;;;;;;4980014;28;20026;-83
2023/09/04 10:42:33;;;;;;;4.68;1.83;;;28.50;99.90;;;;;;4991033;28;20036;-83
2023/09/04 10:45:10;;;;;;;;;;;28.60;99.90;;;;;;4990580;28;20093;-83
2023/09/04 10:47:51;;;;;;;2.67;1.85;;;28.60;99.90;;;;;;4988145;28;20271;-83
2023/09/04 10:50:34;;;;;;;1.85;1.75;;;28.50;99.90;;;;;;4975916;28;20131;-83
2023/09/04 10:53:02;;;;;;;2.95;2.00;;;28.60;99.90;;;;;;4991818;28;20054;-83
2023/09/04 10:55:28;;;;;;;4.03;2.20;;;28.60;99.90;;;;;;4987838;28;20073;-83
2023/09/04 10:58:13;;;;;;;2.88;1.98;;;28.80;99.90;;;;;;4974498;28;20038;-83
2023/09/04 11:00:40;;;;;;;10.98;8.63;;;28.80;99.90;;;;;;4991522;28;20108;-83
2023/09/04 11:03:23;;;;;;;4.22;2.00;;;28.90;99.90;;;;;;4973287;28;20125;-83
2023/09/04 11:06:07;;;;;;;7.85;2.03;;;28.90;99.90;;;;;;4981451;28;20092;-83
2023/09/04 11:08:39;;;;;;;5.95;1.85;;;29.00;99.90;;;;;;4989715;28;20022;-83
2023/09/04 11:11:06;;;;;;;3.67;2.00;;;28.80;99.90;;;;;;4974726;28;20101;-83
2023/09/04 11:13:39;;;;;;;4.57;2.10;;;28.90;99.90;;;;;;4984880;28;20023;-83
2023/09/04 11:16:07;;;;;;;2.33;1.92;;;29.00;99.90;;;;;;4987333;28;20034;-83
2023/09/04 11:18:37;;;;;;;;;;;29.10;99.90;;;;;;4990853;28;20022;-83
2023/09/04 11:21:03;;;;;;;3.30;1.83;;;29.10;99.90;;;;;;4989553;28;19909;-83
2023/09/04 11:23:29;;;;;;;1.80;1.60;;;29.00;99.90;;;;;;4991068;28;20042;-83
2023/09/04 11:25:56;;;;;;;4.85;1.92;;;29.10;99.90;;;;;;4985770;28;20030;-83
2023/09/04 11:28:25;;;;;;;4.50;1.92;;;29.20;99.90;;;;;;4973991;28;20023;-83
2023/09/04 11:30:57;;;;;;;3.58;2.03;;;29.20;99.90;;;;;;4989861;28;20042;-83
2023/09/04 11:33:33;;;;;;;4.15;2.10;;;29.20;99.90;;;;;;5005627;28;20581;-83
2023/09/04 11:36:06;;;;;;;4.95;1.92;;;29.20;99.90;;;;;;5007852;28;20505;-83
2023/09/04 11:38:33;;;;;;;2.75;1.98;;;29.20;99.90;;;;;;4989877;28;20063;-83
2023/09/04 11:41:00;;;;;;;3.28;2.00;;;29.20;99.90;;;;;;4989844;28;20029;-83
2023/09/04 11:43:27;;;;;;;2.58;1.85;;;29.30;99.90;;;;;;4990866;28;20154;-83
2023/09/04 11:45:57;;;;;;;4.53;1.67;;;29.40;99.90;;;;;;4989731;28;20085;-83
2023/09/04 11:48:27;;;;;;;2.88;2.10;;;29.20;99.90;;;;;;4989404;28;20044;-83
2023/09/04 11:50:54;;;;;;;6.13;2.00;;;29.40;99.90;;;;;;4990625;28;20038;-83
2023/09/04 11:53:23;;;;;;;2.63;1.80;;;29.50;99.90;;;;;;4990589;28;20030;-83
2023/09/04 11:55:53;;;;;;;2.75;1.90;;;29.50;99.90;;;;;;4974846;28;20027;-83
2023/09/04 11:58:19;;;;;;;4.78;2.00;;;29.60;99.90;;;;;;4972870;28;20031;-83
2023/09/04 12:00:47;;;;;;;5.20;1.75;;;29.60;99.90;;;;;;4989032;28;20823;-83
2023/09/04 12:03:13;;;;;;;7.93;1.77;;;29.70;99.90;;;;;;4989508;28;20124;-83
2023/09/04 12:05:39;;;;;;;6.60;2.15;;;29.60;99.90;;;;;;4989702;28;20498;-83
2023/09/04 12:08:05;;;;;;;6.05;2.20;;;29.70;99.90;;;;;;4977571;28;20019;-83
2023/09/04 12:10:35;;;;;;;2.90;1.65;;;29.60;99.90;;;;;;4973009;28;20039;-83
2023/09/04 12:13:04;;;;;;;2.58;1.70;;;29.60;99.90;;;;;;4974263;28;20050;-83
2023/09/04 12:15:33;;;;;;;2.63;2.17;;;29.70;99.90;;;;;;4975226;28;20033;-83
2023/09/04 12:18:03;;;;;;;5.38;2.15;;;29.70;99.90;;;;;;4989517;28;20032;-83
2023/09/04 12:20:36;;;;;;;3.20;1.80;;;29.70;99.90;;;;;;4981894;28;20033;-83
2023/09/04 12:23:02;;;;;;;4.55;1.85;;;29.60;99.90;;;;;;4972104;28;20058;-83
2023/09/04 12:25:42;;;;;;;4.30;1.70;;;29.60;99.90;;;;;;4989200;28;20065;-83
2023/09/04 12:28:10;;;;;;;3.22;1.80;;;29.70;99.90;;;;;;4986942;28;20378;-83
2023/09/04 12:30:40;;;;;;;2.33;1.80;;;29.70;99.90;;;;;;4974653;28;20037;-83
2023/09/04 12:33:10;;;;;;;6.10;1.90;;;29.70;99.90;;;;;;4986969;28;20081;-83
2023/09/04 12:35:35;;;;;;;2.78;1.85;;;29.80;99.90;;;;;;4987106;28;20490;-83
2023/09/04 12:38:01;;;;;;;1.90;1.73;;;29.90;99.90;;;;;;4989028;28;20022;-83
2023/09/04 12:40:27;;;;;;;4.53;1.90;;;29.90;99.90;;;;;;4990638;28;20026;-83
2023/09/04 12:42:53;;;;;;;2.55;1.77;;;29.90;99.90;;;;;;4988953;28;20030;-83
2023/09/04 12:45:18;;;;;;;4.85;2.00;;;29.90;99.90;;;;;;4973124;28;20054;-83
2023/09/04 12:47:44;;;;;;;3.65;1.88;;;29.90;99.90;;;;;;4986901;28;20569;-82
2023/09/04 12:50:10;;;;;;;2.75;1.77;;;30.00;99.90;;;;;;4987553;28;20037;-83